createdAt,value
2022-11-10T00:01:28.704Z,8.75
2022-11-10T00:04:05.061Z,8.54
2022-11-10T00:06:33.281Z,8.68
2022-11-10T00:09:03.867Z,8.63
2022-11-10T00:11:35.723Z,8.75
2022-11-10T00:14:29.606Z,8.63
2022-11-10T00:17:04.873Z,8.77
2022-11-10T00:19:35.874Z,8.67
2022-11-10T00:22:04.280Z,8.66
2022-11-10T00:24:33.987Z,8.51
2022-11-10T00:27:02.892Z,8.72
2022-11-10T00:29:33.713Z,8.76
2022-11-10T00:32:01.963Z,8.70
2022-11-10T00:34:30.898Z,8.58
2022-11-10T00:36:59.794Z,8.67
2022-11-10T00:39:28.775Z,8.62
2022-11-10T00:42:06.463Z,8.63
2022-11-10T00:44:34.708Z,8.53
2022-11-10T00:47:13.498Z,8.61
2022-11-10T00:49:43.956Z,8.58
2022-11-10T00:52:12.537Z,8.68
2022-11-10T00:54:40.710Z,8.67
2022-11-10T00:57:11.959Z,8.54
2022-11-10T00:59:43.094Z,8.53
2022-11-10T01:02:10.965Z,8.57
2022-11-10T01:04:38.804Z,8.48
2022-11-10T01:07:07.807Z,8.45
2022-11-10T01:09:35.575Z,8.45
2022-11-10T01:12:05.629Z,8.42
2022-11-10T01:14:36.242Z,8.39
2022-11-10T01:17:08.801Z,8.40
2022-11-10T01:19:36.657Z,8.39
2022-11-10T01:22:05.667Z,8.43
2022-11-10T01:24:33.857Z,8.38
2022-11-10T01:27:01.784Z,8.46
2022-11-10T01:29:29.751Z,8.35
2022-11-10T01:31:58.989Z,8.31
2022-11-10T01:34:26.740Z,8.32
2022-11-10T01:36:54.554Z,8.32
2022-11-10T01:39:28.331Z,8.36
2022-11-10T01:42:00.242Z,8.33
2022-11-10T01:44:28.695Z,8.32
2022-11-10T01:46:56.568Z,8.30
2022-11-10T01:49:32.314Z,8.37
2022-11-10T01:52:05.620Z,8.30
2022-11-10T01:54:37.425Z,8.23
2022-11-10T01:57:09.384Z,8.16
2022-11-10T01:59:42.510Z,8.11
2022-11-10T02:02:15.863Z,8.14
2022-11-10T02:04:45.934Z,8.07
2022-11-10T02:07:15.995Z,8.15
2022-11-10T02:09:44.063Z,8.23
2022-11-10T02:12:13.797Z,8.26
2022-11-10T02:14:45.075Z,8.23
2022-11-10T02:17:14.682Z,8.29
2022-11-10T02:19:43.484Z,8.24
2022-11-10T02:22:13.975Z,8.25
2022-11-10T02:24:42.939Z,8.29
2022-11-10T02:27:10.975Z,8.37
2022-11-10T02:29:38.933Z,8.41
2022-11-10T02:32:06.900Z,8.42
2022-11-10T02:34:34.791Z,8.37
2022-11-10T02:37:02.979Z,8.42
2022-11-10T02:39:32.351Z,8.37
2022-11-10T02:42:01.195Z,8.45
2022-11-10T02:44:29.519Z,8.51
2022-11-10T02:47:02.085Z,8.48
2022-11-10T02:49:30.219Z,8.51
2022-11-10T02:51:59.349Z,8.43
2022-11-10T02:54:27.416Z,8.57
2022-11-10T02:56:56.580Z,8.58
2022-11-10T02:59:24.534Z,8.56
2022-11-10T03:01:52.269Z,8.54
2022-11-10T03:04:24.218Z,8.50
2022-11-10T03:07:01.276Z,8.50
2022-11-10T03:09:29.388Z,8.54
2022-11-10T03:11:58.692Z,8.62
2022-11-10T03:14:26.658Z,8.63
2022-11-10T03:16:58.590Z,8.53
2022-11-10T03:19:27.498Z,8.51
2022-11-10T03:21:56.530Z,8.45
2022-11-10T03:24:26.025Z,8.40
2022-11-10T03:26:54.097Z,8.46
2022-11-10T03:29:26.003Z,8.44
2022-11-10T03:32:00.001Z,8.50
2022-11-10T03:34:31.838Z,8.43
2022-11-10T03:40:01.183Z,8.40
2022-11-10T03:42:29.267Z,8.27
2022-11-10T03:44:59.338Z,8.34
2022-11-10T03:47:27.683Z,8.33
2022-11-10T03:49:55.530Z,8.28
2022-11-10T03:52:25.949Z,8.31
2022-11-10T03:54:59.269Z,8.42
2022-11-10T03:57:34.447Z,8.33
2022-11-10T04:00:04.870Z,8.40
2022-11-10T04:02:32.879Z,8.46
2022-11-10T04:05:18.419Z,8.43
2022-11-10T04:08:04.247Z,8.40
2022-11-10T04:10:32.606Z,8.47
2022-11-10T04:13:20.090Z,8.59
2022-11-10T04:15:49.697Z,8.50
2022-11-10T04:18:25.635Z,8.60
2022-11-10T04:20:55.268Z,8.61
2022-11-10T04:23:31.087Z,8.63
2022-11-10T04:26:19.011Z,8.67
2022-11-10T04:28:48.372Z,8.66
2022-11-10T04:31:20.084Z,8.72
2022-11-10T04:33:50.547Z,8.76
2022-11-10T04:36:22.749Z,8.75
2022-11-10T04:38:50.758Z,8.74
2022-11-10T04:41:20.638Z,8.67
2022-11-10T04:43:48.778Z,8.63
2022-11-10T04:46:24.400Z,8.74
2022-11-10T04:48:53.619Z,8.77
2022-11-10T04:51:24.987Z,8.84
2022-11-10T04:53:52.912Z,8.79
2022-11-10T04:56:22.938Z,8.89
2022-11-10T04:58:51.032Z,8.82
2022-11-10T05:01:23.189Z,8.85
2022-11-10T05:03:54.840Z,8.82
2022-11-10T05:06:23.519Z,8.81
2022-11-10T05:08:54.192Z,8.81
2022-11-10T05:11:22.319Z,8.66
2022-11-10T05:13:55.632Z,8.73
2022-11-10T05:16:27.669Z,8.58
2022-11-10T05:19:04.963Z,8.72
2022-11-10T05:21:35.126Z,8.71
2022-11-10T05:24:06.761Z,8.76
2022-11-10T05:26:36.140Z,8.75
2022-11-10T05:29:05.010Z,8.78
2022-11-10T05:31:40.584Z,8.85
2022-11-10T05:34:08.532Z,8.84
2022-11-10T05:36:54.990Z,8.79
2022-11-10T05:39:22.832Z,8.82
2022-11-10T05:41:56.504Z,8.72
2022-11-10T05:44:28.674Z,8.69
2022-11-10T05:46:58.818Z,8.81
2022-11-10T05:49:27.424Z,8.84
2022-11-10T05:51:55.276Z,8.91
2022-11-10T05:54:24.070Z,8.89
2022-11-10T05:56:52.323Z,8.93
2022-11-10T05:59:22.155Z,8.99
2022-11-10T06:01:51.379Z,8.94
2022-11-10T06:04:20.651Z,9.02
2022-11-10T06:06:52.723Z,9.01
2022-11-10T06:09:20.596Z,9.11
2022-11-10T06:11:55.907Z,9.13
2022-11-10T06:14:30.561Z,9.10
2022-11-10T06:16:59.713Z,9.14
2022-11-10T06:19:30.382Z,9.02
2022-11-10T06:22:05.074Z,9.01
2022-11-10T06:24:36.231Z,9.09
2022-11-10T06:27:04.239Z,9.08
2022-11-10T06:29:32.823Z,8.99
2022-11-10T06:32:00.842Z,9.10
2022-11-10T06:34:31.650Z,8.99
2022-11-10T06:37:00.034Z,9.01
2022-11-10T06:39:30.218Z,9.01
2022-11-10T06:42:05.214Z,9.04
2022-11-10T06:44:34.156Z,8.99
2022-11-10T06:47:02.023Z,8.96
2022-11-10T06:49:31.697Z,9.09
2022-11-10T06:51:59.656Z,9.10
2022-11-10T06:54:27.727Z,9.01
2022-11-10T06:56:55.602Z,9.07
2022-11-10T06:59:23.680Z,9.00
2022-11-10T07:01:52.661Z,9.17
2022-11-10T07:04:21.917Z,9.13
2022-11-10T07:06:51.944Z,9.11
2022-11-10T07:09:20.128Z,9.07
2022-11-10T07:11:48.120Z,9.09
2022-11-10T07:14:16.138Z,9.10
2022-11-10T07:16:45.999Z,9.18
2022-11-10T07:19:16.453Z,9.19
2022-11-10T07:21:44.432Z,9.31
2022-11-10T07:24:13.731Z,9.31
2022-11-10T07:26:47.848Z,9.34
2022-11-10T07:29:15.872Z,9.33
2022-11-10T07:31:44.254Z,9.33
2022-11-10T07:34:13.533Z,9.31
2022-11-10T07:36:44.648Z,9.26
2022-11-10T07:39:15.889Z,9.22
2022-11-10T07:41:51.289Z,9.25
2022-11-10T07:44:22.195Z,9.17
2022-11-10T07:46:50.381Z,9.22
2022-11-10T07:49:19.654Z,9.24
2022-11-10T07:51:51.083Z,9.33
2022-11-10T07:54:26.659Z,9.47
2022-11-10T07:56:54.785Z,9.42
2022-11-10T07:59:22.772Z,9.49
2022-11-10T08:01:56.639Z,9.47
2022-11-10T08:04:25.784Z,9.50
2022-11-10T08:06:56.273Z,9.35
2022-11-10T08:09:25.746Z,9.38
2022-11-10T08:11:56.146Z,9.43
2022-11-10T08:14:30.285Z,9.46
2022-11-10T08:17:02.329Z,9.43
2022-11-10T08:19:38.792Z,9.42
2022-11-10T08:22:08.703Z,9.53
2022-11-10T08:24:38.982Z,9.57
2022-11-10T08:27:08.832Z,9.74
2022-11-10T08:29:37.020Z,9.84
2022-11-10T08:32:07.439Z,9.95
2022-11-10T08:34:36.880Z,9.98
2022-11-10T08:37:07.326Z,10.17
2022-11-10T08:39:39.575Z,10.18
2022-11-10T08:42:09.424Z,10.46
2022-11-10T08:45:01.358Z,10.65
2022-11-10T08:47:49.391Z,10.81
2022-11-10T08:51:11.682Z,10.72
2022-11-10T08:53:39.510Z,10.71
2022-11-10T08:56:07.910Z,10.69
2022-11-10T08:58:48.548Z,10.68
2022-11-10T09:01:21.294Z,10.74
2022-11-10T09:03:49.193Z,11.01
2022-11-10T09:06:19.560Z,11.42
2022-11-10T09:08:47.941Z,11.66
2022-11-10T09:11:15.874Z,12.09
2022-11-10T09:13:45.129Z,12.32
2022-11-10T09:16:13.054Z,12.56
2022-11-10T09:18:40.874Z,12.56
2022-11-10T09:21:11.922Z,12.73
2022-11-10T09:23:39.940Z,13.02
2022-11-10T09:26:08.172Z,13.20
2022-11-10T09:28:36.092Z,12.90
2022-11-10T09:31:05.231Z,12.74
2022-11-10T09:33:34.283Z,12.65
2022-11-10T09:36:02.192Z,12.54
2022-11-10T09:38:30.291Z,12.56
2022-11-10T09:41:04.286Z,13.22
2022-11-10T09:43:38.596Z,12.99
2022-11-10T09:46:17.428Z,12.74
2022-11-10T09:48:49.695Z,12.84
2022-11-10T09:51:23.225Z,13.14
2022-11-10T09:53:56.587Z,13.22
2022-11-10T09:56:32.791Z,13.28
2022-11-10T09:59:01.885Z,13.18
2022-11-10T10:01:40.199Z,13.23
2022-11-10T10:04:21.413Z,13.39
2022-11-10T10:07:10.547Z,13.65
2022-11-10T10:09:49.162Z,13.75
2022-11-10T10:12:42.148Z,13.67
2022-11-10T10:15:25.875Z,13.81
2022-11-10T10:18:06.380Z,14.01
2022-11-10T10:20:43.179Z,14.12
2022-11-10T10:23:26.955Z,14.16
2022-11-10T10:26:14.087Z,14.00
2022-11-10T10:28:46.492Z,13.79
2022-11-10T10:31:20.263Z,13.63
2022-11-10T10:33:50.099Z,13.71
2022-11-10T10:36:21.134Z,13.49
2022-11-10T10:38:53.130Z,13.63
2022-11-10T10:41:25.094Z,13.88
2022-11-10T10:43:55.823Z,13.87
2022-11-10T10:46:28.366Z,13.82
2022-11-10T10:49:27.997Z,13.81
2022-11-10T10:52:06.109Z,14.04
2022-11-10T10:54:35.762Z,14.18
2022-11-10T10:57:06.236Z,14.01
2022-11-10T10:59:35.328Z,14.01
2022-11-10T11:02:22.024Z,14.09
2022-11-10T11:05:12.725Z,14.46
2022-11-10T11:07:40.753Z,15.01
2022-11-10T11:10:23.857Z,15.24
2022-11-10T11:12:51.947Z,15.40
2022-11-10T11:15:25.767Z,15.74
2022-11-10T11:17:58.270Z,14.94
2022-11-10T11:20:38.934Z,15.08
2022-11-10T11:23:17.488Z,15.06
2022-11-10T11:25:48.180Z,14.69
2022-11-10T11:28:23.759Z,14.49
2022-11-10T11:31:06.996Z,14.52
2022-11-10T11:33:42.644Z,14.39
2022-11-10T11:36:22.163Z,14.55
2022-11-10T11:38:57.324Z,14.80
2022-11-10T11:41:36.077Z,14.57
2022-11-10T11:44:25.629Z,14.52
2022-11-10T11:47:08.275Z,14.67
2022-11-10T11:49:56.816Z,15.34
2022-11-10T11:52:35.444Z,15.86
2022-11-10T11:55:19.438Z,15.79
2022-11-10T11:58:00.655Z,14.61
2022-11-10T12:00:36.752Z,14.46
2022-11-10T12:03:29.219Z,14.38
2022-11-10T12:06:15.415Z,14.40
2022-11-10T12:08:56.175Z,14.33
2022-11-10T12:11:38.261Z,14.22
2022-11-10T12:14:16.233Z,14.07
2022-11-10T12:16:47.568Z,13.88
2022-11-10T12:19:28.261Z,13.80
2022-11-10T12:22:05.256Z,13.55
2022-11-10T12:24:50.963Z,13.63
2022-11-10T12:27:23.581Z,13.70
2022-11-10T12:29:57.372Z,13.64
2022-11-10T12:32:29.422Z,13.59
2022-11-10T12:35:02.005Z,13.59
2022-11-10T12:37:34.751Z,13.61
2022-11-10T12:40:15.658Z,13.58
2022-11-10T12:42:47.154Z,13.48
2022-11-10T12:45:22.246Z,13.47
2022-11-10T12:47:50.493Z,13.53
2022-11-10T12:50:29.378Z,13.58
2022-11-10T12:53:02.988Z,13.62
2022-11-10T12:55:37.594Z,13.53
2022-11-10T12:58:07.295Z,13.55
2022-11-10T13:00:41.197Z,13.66
2022-11-10T13:03:26.460Z,13.72
2022-11-10T13:05:59.997Z,13.90
2022-11-10T13:08:46.860Z,13.96
2022-11-10T13:11:29.748Z,13.93
2022-11-10T13:14:00.123Z,14.02
2022-11-10T13:16:58.790Z,14.03
2022-11-10T13:19:52.616Z,13.94
2022-11-10T13:22:40.557Z,13.96
2022-11-10T13:25:57.731Z,14.10
2022-11-10T13:29:02.738Z,14.44
2022-11-10T13:31:52.269Z,14.73
2022-11-10T13:34:36.127Z,14.39
2022-11-10T13:37:25.436Z,14.40
2022-11-10T13:39:54.005Z,14.36
2022-11-10T13:42:24.453Z,14.24
2022-11-10T13:44:54.073Z,14.14
2022-11-10T13:47:47.454Z,14.07
2022-11-10T13:50:30.779Z,14.05
2022-11-10T13:53:17.091Z,14.09
2022-11-10T13:56:01.510Z,14.13
2022-11-10T13:58:32.782Z,14.12
2022-11-10T14:01:30.322Z,14.03
2022-11-10T14:04:02.059Z,13.94
2022-11-10T14:06:43.400Z,13.92
2022-11-10T14:09:31.660Z,13.89
2022-11-10T14:12:05.303Z,13.88
2022-11-10T14:14:40.913Z,13.90
2022-11-10T14:17:20.013Z,13.90
2022-11-10T14:19:48.445Z,13.90
2022-11-10T14:22:24.068Z,13.89
2022-11-10T14:24:59.236Z,13.87
2022-11-10T14:27:35.010Z,13.85
2022-11-10T14:30:26.806Z,13.87
2022-11-10T14:33:03.173Z,13.86
2022-11-10T14:35:38.302Z,13.88
2022-11-10T14:38:21.275Z,13.91
2022-11-10T14:40:52.735Z,13.93
2022-11-10T14:43:28.900Z,13.88
2022-11-10T14:46:00.557Z,13.90
2022-11-10T14:48:32.282Z,13.90
2022-11-10T14:51:06.180Z,13.87
2022-11-10T14:53:39.499Z,13.86
2022-11-10T14:56:15.650Z,13.76
2022-11-10T14:58:45.674Z,13.77
2022-11-10T15:01:25.593Z,13.75
2022-11-10T15:03:59.990Z,13.76
2022-11-10T15:06:28.644Z,13.75
2022-11-10T15:08:56.821Z,13.68
2022-11-10T15:11:35.693Z,13.55
2022-11-10T15:14:06.010Z,13.40
2022-11-10T15:16:38.611Z,13.30
2022-11-10T15:19:30.573Z,13.17
2022-11-10T15:22:06.800Z,13.17
2022-11-10T15:24:35.179Z,13.22
2022-11-10T15:27:03.355Z,13.16
2022-11-10T15:29:34.622Z,13.14
2022-11-10T15:32:02.579Z,13.20
2022-11-10T15:34:45.909Z,13.17
2022-11-10T15:37:29.264Z,13.18
2022-11-10T15:40:33.166Z,13.14
2022-11-10T15:43:26.832Z,13.09
2022-11-10T15:46:00.547Z,12.94
2022-11-10T15:48:37.192Z,12.98
2022-11-10T15:51:13.627Z,13.13
2022-11-10T15:53:49.030Z,13.14
2022-11-10T15:56:18.416Z,13.15
2022-11-10T15:58:48.138Z,13.24
2022-11-10T16:01:17.923Z,13.22
2022-11-10T16:03:47.745Z,13.25
2022-11-10T16:06:18.042Z,13.26
2022-11-10T16:08:46.122Z,13.19
2022-11-10T16:11:19.971Z,13.17
2022-11-10T16:13:49.671Z,13.15
2022-11-10T16:16:19.307Z,13.18
2022-11-10T16:18:47.869Z,13.18
2022-11-10T16:21:19.346Z,13.24
2022-11-10T16:23:48.752Z,13.25
2022-11-10T16:26:18.413Z,13.29
2022-11-10T16:28:47.842Z,13.27
2022-11-10T16:31:16.769Z,13.24
2022-11-10T16:33:46.865Z,13.26
2022-11-10T16:36:23.219Z,13.20
2022-11-10T16:38:51.252Z,13.24
2022-11-10T16:41:19.316Z,13.20
2022-11-10T16:43:47.368Z,13.20
2022-11-10T16:46:20.032Z,13.18
2022-11-10T16:48:48.858Z,13.18
2022-11-10T16:51:18.914Z,13.16
2022-11-10T16:53:46.935Z,13.12
2022-11-10T16:56:16.189Z,13.15
2022-11-10T16:58:45.151Z,13.13
2022-11-10T17:01:20.402Z,13.10
2022-11-10T17:03:51.366Z,13.09
2022-11-10T17:06:22.193Z,13.04
2022-11-10T17:08:52.303Z,13.14
2022-11-10T17:11:20.352Z,13.14
2022-11-10T17:13:49.553Z,13.12
2022-11-10T17:16:24.561Z,13.14
2022-11-10T17:18:52.891Z,13.17
2022-11-10T17:21:25.260Z,13.14
2022-11-10T17:23:59.855Z,13.14
2022-11-10T17:26:28.445Z,13.16
2022-11-10T17:28:56.530Z,13.15
2022-11-10T17:31:24.425Z,13.14
2022-11-10T17:33:52.907Z,13.19
2022-11-10T17:36:24.210Z,13.17
2022-11-10T17:38:53.098Z,13.17
2022-11-10T17:41:22.036Z,13.11
2022-11-10T17:43:49.929Z,13.16
2022-11-10T17:46:18.018Z,13.17
2022-11-10T17:48:47.767Z,13.10
2022-11-10T17:51:20.158Z,13.10
2022-11-10T17:53:50.672Z,13.12
2022-11-10T17:56:18.713Z,13.15
2022-11-10T17:58:46.573Z,13.07
2022-11-10T18:01:17.885Z,13.04
2022-11-10T18:03:46.373Z,13.15
2022-11-10T18:06:15.743Z,13.06
2022-11-10T18:08:45.234Z,13.10
2022-11-10T18:11:17.717Z,13.15
2022-11-10T18:13:45.851Z,13.21
2022-11-10T18:16:15.073Z,13.18
2022-11-10T18:18:43.284Z,13.17
2022-11-10T18:21:12.643Z,13.24
2022-11-10T18:23:45.033Z,13.20
2022-11-10T18:26:18.094Z,13.18
2022-11-10T18:28:48.623Z,13.10
2022-11-10T18:31:17.841Z,12.97
2022-11-10T18:33:47.763Z,12.92
2022-11-10T18:36:15.797Z,12.98
2022-11-10T18:38:43.791Z,12.96
2022-11-10T18:41:29.559Z,13.04
2022-11-10T18:43:58.815Z,12.94
2022-11-10T18:46:26.754Z,12.98
2022-11-10T18:48:54.677Z,12.95
2022-11-10T18:51:22.462Z,12.95
2022-11-10T18:53:50.436Z,12.92
2022-11-10T18:56:18.593Z,12.86
2022-11-10T18:58:55.320Z,12.87
2022-11-10T19:01:26.371Z,12.84
2022-11-10T19:03:54.479Z,12.79
2022-11-10T19:06:22.430Z,12.78
2022-11-10T19:08:50.495Z,12.74
2022-11-10T19:11:20.244Z,12.70
2022-11-10T19:13:48.297Z,12.61
2022-11-10T19:16:29.143Z,12.65
2022-11-10T19:19:00.616Z,12.64
2022-11-10T19:21:28.815Z,12.54
2022-11-10T19:23:59.969Z,12.48
2022-11-10T19:26:28.796Z,12.51
2022-11-10T19:28:57.568Z,12.42
2022-11-10T19:31:25.901Z,12.40
2022-11-10T19:33:59.500Z,12.29
2022-11-10T19:39:42.680Z,11.97
2022-11-10T19:42:10.570Z,12.05
2022-11-10T19:44:38.364Z,11.96
2022-11-10T19:47:21.570Z,11.97
2022-11-10T19:49:52.381Z,11.93
2022-11-10T19:52:20.256Z,11.91
2022-11-10T19:54:52.469Z,11.85
2022-11-10T19:57:20.250Z,11.75
2022-11-10T19:59:53.269Z,11.70
2022-11-10T20:02:21.144Z,11.55
2022-11-10T20:05:08.107Z,11.62
2022-11-10T20:07:53.443Z,11.60
2022-11-10T20:10:21.954Z,11.53
2022-11-10T20:13:03.436Z,11.43
2022-11-10T20:15:33.488Z,11.54
2022-11-10T20:18:03.859Z,11.49
2022-11-10T20:20:33.688Z,11.47
2022-11-10T20:23:03.151Z,11.53
2022-11-10T20:25:31.449Z,11.50
2022-11-10T20:28:01.304Z,11.48
2022-11-10T20:30:29.284Z,11.64
2022-11-10T20:32:57.181Z,11.63
2022-11-10T20:35:25.215Z,11.62
2022-11-10T20:37:54.502Z,11.65
2022-11-10T20:40:43.332Z,11.57
2022-11-10T20:43:11.804Z,11.61
2022-11-10T20:45:39.785Z,11.65
2022-11-10T20:48:07.807Z,11.65
2022-11-10T20:50:35.870Z,11.68
2022-11-10T20:53:05.768Z,11.65
2022-11-10T20:55:53.050Z,11.65
2022-11-10T20:58:21.502Z,11.68
2022-11-10T21:00:49.503Z,11.66
2022-11-10T21:03:17.544Z,11.71
2022-11-10T21:05:45.895Z,11.67
2022-11-10T21:08:18.294Z,11.77
2022-11-10T21:10:51.174Z,11.73
2022-11-10T21:13:19.561Z,11.72
2022-11-10T21:15:51.092Z,11.73
2022-11-10T21:18:19.549Z,11.72
2022-11-10T21:20:48.405Z,11.73
2022-11-10T21:23:18.137Z,11.63
2022-11-10T21:25:52.840Z,11.76
2022-11-10T21:28:20.763Z,11.72
2022-11-10T21:30:49.938Z,11.63
2022-11-10T21:33:18.081Z,11.66
2022-11-10T21:35:46.235Z,11.68
2022-11-10T21:38:14.850Z,11.62
2022-11-10T21:40:45.286Z,11.66
2022-11-10T21:43:13.332Z,11.62
2022-11-10T21:45:41.299Z,11.62
2022-11-10T21:48:09.998Z,11.54
2022-11-10T21:50:37.883Z,11.65
2022-11-10T21:53:08.029Z,11.61
2022-11-10T21:55:38.554Z,11.57
2022-11-10T21:58:18.744Z,11.40
2022-11-10T22:00:46.998Z,11.59
2022-11-10T22:03:15.074Z,11.52
2022-11-10T22:05:43.078Z,11.59
2022-11-10T22:08:11.025Z,11.57
2022-11-10T22:10:59.681Z,11.54
2022-11-10T22:13:47.498Z,11.52
2022-11-10T22:16:41.288Z,11.58
2022-11-10T22:19:10.476Z,11.55
2022-11-10T22:21:38.884Z,11.54
2022-11-10T22:24:26.686Z,11.50
2022-11-10T22:26:56.698Z,11.58
2022-11-10T22:29:31.438Z,11.57
2022-11-10T22:32:00.641Z,11.56
2022-11-10T22:34:28.641Z,11.60
2022-11-10T22:37:10.664Z,11.52
2022-11-10T22:39:55.214Z,11.62
2022-11-10T22:42:41.151Z,11.59
2022-11-10T22:45:10.696Z,11.55
2022-11-10T22:47:52.493Z,11.60
2022-11-10T22:50:20.408Z,11.55
2022-11-10T22:52:48.277Z,11.56
2022-11-10T22:55:16.303Z,11.55
2022-11-10T22:57:44.161Z,11.52
2022-11-10T23:00:15.536Z,11.48
2022-11-10T23:02:44.413Z,11.52
2022-11-10T23:05:12.550Z,11.50
2022-11-10T23:07:41.325Z,11.49
2022-11-10T23:10:10.148Z,11.44
2022-11-10T23:12:38.169Z,11.47
2022-11-10T23:15:06.368Z,11.46
2022-11-10T23:17:35.622Z,11.45
2022-11-10T23:20:03.956Z,11.41
2022-11-10T23:22:31.899Z,11.39
2022-11-10T23:25:04.172Z,11.40
2022-11-10T23:27:34.177Z,11.36
2022-11-10T23:30:04.824Z,11.29
2022-11-10T23:32:35.113Z,11.36
2022-11-10T23:35:03.043Z,11.31
2022-11-10T23:37:31.003Z,11.35
2022-11-10T23:39:59.788Z,11.30
2022-11-10T23:42:28.790Z,11.33
2022-11-10T23:44:57.798Z,11.33
2022-11-10T23:47:25.884Z,11.29
2022-11-10T23:49:55.097Z,11.30
2022-11-10T23:52:23.006Z,11.31
2022-11-10T23:54:50.914Z,11.31
2022-11-10T23:57:18.723Z,11.33
2022-11-10T23:59:46.928Z,11.31
